sensor_id;sensor_type;location;lat;lon;timestamp;pressure;altitude;pressure_sealevel;temperature;humidity
17855;BME280;9053;53.358;6.382;2024-03-08T00:01:25;102199.41;;;3.90;100.00
17855;BME280;9053;53.358;6.382;2024-03-08T00:03:55;102192.56;;;3.81;100.00
17855;BME280;9053;53.358;6.382;2024-03-08T00:06:25;102186.16;;;3.87;100.00
17855;BME280;9053;53.358;6.382;2024-03-08T00:08:55;102192.13;;;3.97;100.00
17855;BME280;9053;53.358;6.382;2024-03-08T00:11:26;102187.41;;;4.03;100.00
17855;BME280;9053;53.358;6.382;2024-03-08T00:13:56;102184.81;;;4.03;100.00
17855;BME280;9053;53.358;6.382;2024-03-08T00:16:28;102183.91;;;4.02;100.00
17855;BME280;9053;53.358;6.382;2024-03-08T00:18:58;102185.09;;;4.06;100.00
17855;BME280;9053;53.358;6.382;2024-03-08T00:21:29;102185.56;;;4.12;100.00
17855;BME280;9053;53.358;6.382;2024-03-08T00:23:59;102182.97;;;4.12;100.00
17855;BME280;9053;53.358;6.382;2024-03-08T00:26:29;102182.34;;;4.04;100.00
17855;BME280;9053;53.358;6.382;2024-03-08T00:29:00;102184.47;;;3.88;100.00
17855;BME280;9053;53.358;6.382;2024-03-08T00:31:32;102172.91;;;3.84;100.00
17855;BME280;9053;53.358;6.382;2024-03-08T00:34:02;102181.97;;;4.00;100.00
17855;BME280;9053;53.358;6.382;2024-03-08T00:36:33;102178.94;;;4.05;100.00
17855;BME280;9053;53.358;6.382;2024-03-08T00:39:03;102178.56;;;4.11;100.00
17855;BME280;9053;53.358;6.382;2024-03-08T00:41:34;102178.56;;;4.11;100.00
17855;BME280;9053;53.358;6.382;2024-03-08T00:44:04;102182.06;;;4.11;100.00
17855;BME280;9053;53.358;6.382;2024-03-08T00:46:37;102174.94;;;3.99;100.00
17855;BME280;9053;53.358;6.382;2024-03-08T00:49:07;102177.78;;;4.02;100.00
17855;BME280;9053;53.358;6.382;2024-03-08T00:51:40;102179.50;;;4.01;100.00
17855;BME280;9053;53.358;6.382;2024-03-08T00:54:11;102167.41;;;3.92;100.00
17855;BME280;9053;53.358;6.382;2024-03-08T00:56:41;102170.03;;;3.92;100.00
17855;BME280;9053;53.358;6.382;2024-03-08T00:59:13;102168.34;;;3.82;100.00
17855;BME280;9053;53.358;6.382;2024-03-08T01:01:45;102165.34;;;3.87;100.00
17855;BME280;9053;53.358;6.382;2024-03-08T01:04:15;102162.22;;;3.92;100.00
17855;BME280;9053;53.358;6.382;2024-03-08T01:06:45;102165.09;;;3.84;100.00
17855;BME280;9053;53.358;6.382;2024-03-08T01:09:15;102158.09;;;3.83;100.00
17855;BME280;9053;53.358;6.382;2024-03-08T01:11:48;102156.38;;;3.84;100.00
17855;BME280;9053;53.358;6.382;2024-03-08T01:14:18;102153.66;;;3.82;100.00
17855;BME280;9053;53.358;6.382;2024-03-08T01:16:51;102153.13;;;3.86;100.00
17855;BME280;9053;53.358;6.382;2024-03-08T01:19:22;102146.88;;;3.84;100.00
17855;BME280;9053;53.358;6.382;2024-03-08T01:21:52;102142.47;;;3.83;100.00
17855;BME280;9053;53.358;6.382;2024-03-08T01:24:22;102131.81;;;3.70;100.00
17855;BME280;9053;53.358;6.382;2024-03-08T01:26:52;102132.63;;;3.69;100.00
17855;BME280;9053;53.358;6.382;2024-03-08T01:29:23;102129.13;;;3.68;100.00
17855;BME280;9053;53.358;6.382;2024-03-08T01:31:55;102126.88;;;3.73;100.00
17855;BME280;9053;53.358;6.382;2024-03-08T01:34:28;102127.41;;;3.69;100.00
17855;BME280;9053;53.358;6.382;2024-03-08T01:37:00;102126.25;;;3.65;100.00
17855;BME280;9053;53.358;6.382;2024-03-08T01:39:30;102110.75;;;3.67;100.00
17855;BME280;9053;53.358;6.382;2024-03-08T01:42:00;102111.00;;;3.70;100.00
17855;BME280;9053;53.358;6.382;2024-03-08T01:44:31;102104.78;;;3.68;100.00
17855;BME280;9053;53.358;6.382;2024-03-08T01:47:04;102103.22;;;3.60;100.00
17855;BME280;9053;53.358;6.382;2024-03-08T01:49:34;102095.47;;;3.50;100.00
17855;BME280;9053;53.358;6.382;2024-03-08T01:52:05;102092.34;;;3.54;100.00
17855;BME280;9053;53.358;6.382;2024-03-08T01:54:36;102098.34;;;3.42;100.00
17855;BME280;9053;53.358;6.382;2024-03-08T01:57:08;102091.31;;;3.41;100.00
17855;BME280;9053;53.358;6.382;2024-03-08T01:59:38;102087.94;;;3.42;100.00
17855;BME280;9053;53.358;6.382;2024-03-08T02:02:11;102083.31;;;3.28;100.00
17855;BME280;9053;53.358;6.382;2024-03-08T02:04:44;102083.03;;;3.25;100.00
17855;BME280;9053;53.358;6.382;2024-03-08T02:07:14;102078.22;;;3.30;100.00
17855;BME280;9053;53.358;6.382;2024-03-08T02:09:44;102072.00;;;3.28;100.00
17855;BME280;9053;53.358;6.382;2024-03-08T02:12:14;102066.78;;;3.17;100.00
17855;BME280;9053;53.358;6.382;2024-03-08T02:14:48;102064.59;;;3.12;100.00
17855;BME280;9053;53.358;6.382;2024-03-08T02:17:21;102060.94;;;3.10;100.00
17855;BME280;9053;53.358;6.382;2024-03-08T02:19:51;102061.34;;;3.04;100.00
17855;BME280;9053;53.358;6.382;2024-03-08T02:22:28;102067.44;;;3.15;100.00
17855;BME280;9053;53.358;6.382;2024-03-08T02:24:58;102065.88;;;3.17;100.00
17855;BME280;9053;53.358;6.382;2024-03-08T02:27:29;102067.97;;;3.21;100.00
17855;BME280;9053;53.358;6.382;2024-03-08T02:29:59;102070.56;;;3.21;100.00
17855;BME280;9053;53.358;6.382;2024-03-08T02:32:30;102066.94;;;3.19;100.00
17855;BME280;9053;53.358;6.382;2024-03-08T02:35:00;102064.81;;;3.25;100.00
17855;BME280;9053;53.358;6.382;2024-03-08T02:37:33;102063.41;;;3.29;100.00
17855;BME280;9053;53.358;6.382;2024-03-08T02:40:03;102059.00;;;3.28;100.00
17855;BME280;9053;53.358;6.382;2024-03-08T02:42:34;102064.56;;;3.32;100.00
17855;BME280;9053;53.358;6.382;2024-03-08T02:45:05;102065.88;;;3.27;100.00
17855;BME280;9053;53.358;6.382;2024-03-08T02:47:37;102057.84;;;3.14;100.00
17855;BME280;9053;53.358;6.382;2024-03-08T02:50:08;102062.25;;;3.15;100.00
17855;BME280;9053;53.358;6.382;2024-03-08T02:52:41;102058.66;;;3.02;100.00
17855;BME280;9053;53.358;6.382;2024-03-08T02:55:13;102051.75;;;3.13;100.00
17855;BME280;9053;53.358;6.382;2024-03-08T02:57:44;102047.84;;;3.08;100.00
17855;BME280;9053;53.358;6.382;2024-03-08T03:00:15;102045.28;;;2.98;100.00
17855;BME280;9053;53.358;6.382;2024-03-08T03:02:46;102042.94;;;2.91;100.00
17855;BME280;9053;53.358;6.382;2024-03-08T03:05:16;102049.28;;;2.94;100.00
17855;BME280;9053;53.358;6.382;2024-03-08T03:07:49;102034.75;;;2.76;100.00
17855;BME280;9053;53.358;6.382;2024-03-08T03:10:19;102036.06;;;2.81;100.00
17855;BME280;9053;53.358;6.382;2024-03-08T03:12:50;102033.97;;;2.77;100.00
17855;BME280;9053;53.358;6.382;2024-03-08T03:15:20;102034.59;;;2.85;100.00
17855;BME280;9053;53.358;6.382;2024-03-08T03:17:54;102035.28;;;2.72;100.00
17855;BME280;9053;53.358;6.382;2024-03-08T03:20:24;102037.22;;;2.74;100.00
17855;BME280;9053;53.358;6.382;2024-03-08T03:23:03;102033.97;;;2.77;100.00
17855;BME280;9053;53.358;6.382;2024-03-08T03:25:35;102035.56;;;2.75;100.00
17855;BME280;9053;53.358;6.382;2024-03-08T03:28:07;102030.88;;;2.71;100.00
17855;BME280;9053;53.358;6.382;2024-03-08T03:30:42;102029.06;;;2.80;100.00
17855;BME280;9053;53.358;6.382;2024-03-08T03:33:14;102030.84;;;2.81;100.00
17855;BME280;9053;53.358;6.382;2024-03-08T03:35:44;102028.53;;;2.74;100.00
17855;BME280;9053;53.358;6.382;2024-03-08T03:38:17;102014.63;;;2.63;100.00
17855;BME280;9053;53.358;6.382;2024-03-08T03:40:47;102019.19;;;2.66;100.00
17855;BME280;9053;53.358;6.382;2024-03-08T03:43:20;102022.41;;;2.73;100.00
17855;BME280;9053;53.358;6.382;2024-03-08T03:45:50;102022.94;;;2.69;100.00
17855;BME280;9053;53.358;6.382;2024-03-08T03:48:21;102019.19;;;2.66;100.00
17855;BME280;9053;53.358;6.382;2024-03-08T03:50:53;102013.84;;;2.64;100.00
17855;BME280;9053;53.358;6.382;2024-03-08T03:53:28;102010.84;;;2.59;100.00
17855;BME280;9053;53.358;6.382;2024-03-08T03:55:58;102013.44;;;2.59;100.00
17855;BME280;9053;53.358;6.382;2024-03-08T03:58:28;102008.91;;;2.57;100.00
17855;BME280;9053;53.358;6.382;2024-03-08T04:00:58;102005.00;;;2.52;100.00
17855;BME280;9053;53.358;6.382;2024-03-08T04:03:29;102002.81;;;2.56;100.00
17855;BME280;9053;53.358;6.382;2024-03-08T04:05:59;102002.56;;;2.53;100.00
17855;BME280;9053;53.358;6.382;2024-03-08T04:08:31;102005.94;;;2.52;100.00
17855;BME280;9053;53.358;6.382;2024-03-08T04:11:02;102003.34;;;2.42;100.00
17855;BME280;9053;53.358;6.382;2024-03-08T04:13:32;101997.13;;;2.50;100.00
17855;BME280;9053;53.358;6.382;2024-03-08T04:16:04;101998.81;;;2.60;100.00
17855;BME280;9053;53.358;6.382;2024-03-08T04:18:35;101993.31;;;2.47;99.97
17855;BME280;9053;53.358;6.382;2024-03-08T04:21:05;101991.66;;;2.47;100.00
17855;BME280;9053;53.358;6.382;2024-03-08T04:23:39;101983.97;;;2.49;100.00
17855;BME280;9053;53.358;6.382;2024-03-08T04:26:12;101980.00;;;2.42;100.00
17855;BME280;9053;53.358;6.382;2024-03-08T04:28:45;101984.88;;;2.49;99.99
17855;BME280;9053;53.358;6.382;2024-03-08T04:31:15;101980.75;;;2.31;99.87
17855;BME280;9053;53.358;6.382;2024-03-08T04:33:45;101979.19;;;2.43;100.00
17855;BME280;9053;53.358;6.382;2024-03-08T04:36:15;101977.25;;;2.51;99.97
17855;BME280;9053;53.358;6.382;2024-03-08T04:38:49;101977.50;;;2.54;99.92
17855;BME280;9053;53.358;6.382;2024-03-08T04:41:19;101977.75;;;2.57;99.90
17855;BME280;9053;53.358;6.382;2024-03-08T04:43:50;101970.25;;;2.50;99.69
17855;BME280;9053;53.358;6.382;2024-03-08T04:46:20;101979.19;;;2.43;99.61
17855;BME280;9053;53.358;6.382;2024-03-08T04:48:50;101971.41;;;2.33;99.56
17855;BME280;9053;53.358;6.382;2024-03-08T04:51:22;101971.81;;;2.37;99.76
17855;BME280;9053;53.358;6.382;2024-03-08T04:53:55;101972.97;;;2.41;99.67
17855;BME280;9053;53.358;6.382;2024-03-08T04:56:26;101965.69;;;2.47;99.66
17855;BME280;9053;53.358;6.382;2024-03-08T04:58:56;101967.13;;;2.33;99.35
17855;BME280;9053;53.358;6.382;2024-03-08T05:01:26;101962.06;;;2.25;99.35
17855;BME280;9053;53.358;6.382;2024-03-08T05:03:56;101955.41;;;1.98;99.36
17855;BME280;9053;53.358;6.382;2024-03-08T05:06:32;101951.13;;;1.98;99.70
17855;BME280;9053;53.358;6.382;2024-03-08T05:09:06;101953.22;;;2.12;99.78
17855;BME280;9053;53.358;6.382;2024-03-08T05:11:41;101948.53;;;2.08;99.81
17855;BME280;9053;53.358;6.382;2024-03-08T05:14:13;101942.31;;;2.06;99.89
17855;BME280;9053;53.358;6.382;2024-03-08T05:16:47;101949.44;;;2.09;99.91
17855;BME280;9053;53.358;6.382;2024-03-08T05:19:18;101953.50;;;2.26;100.00
17855;BME280;9053;53.358;6.382;2024-03-08T05:21:49;101938.97;;;2.17;100.00
17855;BME280;9053;53.358;6.382;2024-03-08T05:24:22;101933.75;;;2.07;99.77
17855;BME280;9053;53.358;6.382;2024-03-08T05:26:52;101942.97;;;2.04;99.89
17855;BME280;9053;53.358;6.382;2024-03-08T05:29:22;101947.00;;;2.10;99.92
17855;BME280;9053;53.358;6.382;2024-03-08T05:31:52;101938.56;;;2.03;99.92
17855;BME280;9053;53.358;6.382;2024-03-08T05:34:23;101944.66;;;2.13;100.00
17855;BME280;9053;53.358;6.382;2024-03-08T05:36:55;101939.59;;;2.15;99.84
17855;BME280;9053;53.358;6.382;2024-03-08T05:39:29;101933.63;;;2.16;99.77
17855;BME280;9053;53.358;6.382;2024-03-08T05:42:00;101938.72;;;2.25;99.78
17855;BME280;9053;53.358;6.382;2024-03-08T05:44:30;101942.97;;;2.04;99.70
17855;BME280;9053;53.358;6.382;2024-03-08T05:47:01;101941.31;;;2.14;99.75
17855;BME280;9053;53.358;6.382;2024-03-08T05:49:31;101940.50;;;2.15;99.61
17855;BME280;9053;53.358;6.382;2024-03-08T05:52:03;101938.41;;;2.22;99.52
17855;BME280;9053;53.358;6.382;2024-03-08T05:54:36;101937.00;;;2.15;99.39
17855;BME280;9053;53.358;6.382;2024-03-08T05:57:07;101940.66;;;2.17;99.45
17855;BME280;9053;53.358;6.382;2024-03-08T05:59:38;101941.56;;;2.17;99.43
17855;BME280;9053;53.358;6.382;2024-03-08T06:02:08;101948.53;;;1.98;99.21
17855;BME280;9053;53.358;6.382;2024-03-08T06:04:38;101949.59;;;2.00;99.39
17855;BME280;9053;53.358;6.382;2024-03-08T06:07:09;101951.38;;;2.01;99.37
17855;BME280;9053;53.358;6.382;2024-03-08T06:09:42;101951.13;;;1.98;99.45
17855;BME280;9053;53.358;6.382;2024-03-08T06:12:13;101948.78;;;2.01;99.55
17855;BME280;9053;53.358;6.382;2024-03-08T06:14:46;101949.69;;;1.91;99.41
17855;BME280;9053;53.358;6.382;2024-03-08T06:17:16;101951.28;;;2.00;99.60
17855;BME280;9053;53.358;6.382;2024-03-08T06:19:46;101947.78;;;1.99;99.36
17855;BME280;9053;53.358;6.382;2024-03-08T06:22:16;101943.09;;;1.95;99.50
17855;BME280;9053;53.358;6.382;2024-03-08T06:24:52;101941.00;;;1.91;99.36
17855;BME280;9053;53.358;6.382;2024-03-08T06:27:23;101944.91;;;1.96;99.50
17855;BME280;9053;53.358;6.382;2024-03-08T06:29:53;101947.78;;;1.99;99.62
17855;BME280;9053;53.358;6.382;2024-03-08T06:32:23;101937.13;;;1.96;99.63
17855;BME280;9053;53.358;6.382;2024-03-08T06:34:53;101942.94;;;1.93;99.65
17855;BME280;9053;53.358;6.382;2024-03-08T06:37:23;101945.28;;;2.01;99.74
17855;BME280;9053;53.358;6.382;2024-03-08T06:39:56;101941.16;;;2.03;99.66
17855;BME280;9053;53.358;6.382;2024-03-08T06:42:26;101944.78;;;1.84;99.66
17855;BME280;9053;53.358;6.382;2024-03-08T06:44:56;101940.50;;;1.95;99.92
17855;BME280;9053;53.358;6.382;2024-03-08T06:47:32;101940.50;;;1.95;99.97
17855;BME280;9053;53.358;6.382;2024-03-08T06:50:03;101948.03;;;2.02;100.00
17855;BME280;9053;53.358;6.382;2024-03-08T06:52:35;101939.72;;;2.06;100.00
17855;BME280;9053;53.358;6.382;2024-03-08T06:55:08;101937.13;;;2.06;100.00
17855;BME280;9053;53.358;6.382;2024-03-08T06:57:39;101938.66;;;1.94;100.00
17855;BME280;9053;53.358;6.382;2024-03-08T07:00:11;101942.31;;;1.96;100.00
17855;BME280;9053;53.358;6.382;2024-03-08T07:02:46;101941.25;;;1.94;100.00
17855;BME280;9053;53.358;6.382;2024-03-08T07:05:16;101936.84;;;1.93;100.00
17855;BME280;9053;53.358;6.382;2024-03-08T07:07:46;101942.59;;;1.99;100.00
17855;BME280;9053;53.358;6.382;2024-03-08T07:10:20;101934.16;;;2.02;100.00
17855;BME280;9053;53.358;6.382;2024-03-08T07:12:51;101941.94;;;2.02;100.00
17855;BME280;9053;53.358;6.382;2024-03-08T07:15:22;101939.47;;;2.03;100.00
17855;BME280;9053;53.358;6.382;2024-03-08T07:17:52;101928.19;;;2.13;100.00
17855;BME280;9053;53.358;6.382;2024-03-08T07:20:22;101932.72;;;2.15;100.00
17855;BME280;9053;53.358;6.382;2024-03-08T07:22:52;101931.16;;;2.07;100.00
17855;BME280;9053;53.358;6.382;2024-03-08T07:25:25;101925.84;;;2.16;100.00
17855;BME280;9053;53.358;6.382;2024-03-08T07:27:56;101926.38;;;2.22;100.00
17855;BME280;9053;53.358;6.382;2024-03-08T07:30:27;101932.47;;;2.23;100.00
17855;BME280;9053;53.358;6.382;2024-03-08T07:33:22;101927.78;;;2.29;100.00
17855;BME280;9053;53.358;6.382;2024-03-08T07:35:52;101927.53;;;2.36;100.00
17855;BME280;9053;53.358;6.382;2024-03-08T07:38:23;101922.09;;;2.23;100.00
17855;BME280;9053;53.358;6.382;2024-03-08T07:40:56;101922.47;;;2.27;100.00
17855;BME280;9053;53.358;6.382;2024-03-08T07:43:28;101924.16;;;2.37;100.00
17855;BME280;9053;53.358;6.382;2024-03-08T07:45:58;101926.19;;;2.51;100.00
17855;BME280;9053;53.358;6.382;2024-03-08T07:48:28;101924.13;;;2.57;100.00
17855;BME280;9053;53.358;6.382;2024-03-08T07:51:01;101922.56;;;2.49;100.00
17855;BME280;9053;53.358;6.382;2024-03-08T07:53:32;101918.69;;;2.44;100.00
17855;BME280;9053;53.358;6.382;2024-03-08T07:56:05;101924.25;;;2.59;100.00
17855;BME280;9053;53.358;6.382;2024-03-08T07:58:38;101918.38;;;2.72;100.00
17855;BME280;9053;53.358;6.382;2024-03-08T08:01:16;101914.56;;;2.89;100.00
17855;BME280;9053;53.358;6.382;2024-03-08T08:03:46;101905.41;;;3.04;100.00
17855;BME280;9053;53.358;6.382;2024-03-08T08:06:16;101905.56;;;3.06;100.00
17855;BME280;9053;53.358;6.382;2024-03-08T08:08:46;101909.94;;;3.07;100.00
17855;BME280;9053;53.358;6.382;2024-03-08T08:11:19;101894.88;;;3.13;100.00
17855;BME280;9053;53.358;6.382;2024-03-08T08:13:49;101893.22;;;3.25;100.00
17855;BME280;9053;53.358;6.382;2024-03-08T08:16:23;101885.69;;;3.28;100.00
17855;BME280;9053;53.358;6.382;2024-03-08T08:18:55;101884.75;;;3.38;100.00
17855;BME280;9053;53.358;6.382;2024-03-08T08:21:26;101880.44;;;3.38;100.00
17855;BME280;9053;53.358;6.382;2024-03-08T08:23:56;101869.41;;;3.53;100.00
17855;BME280;9053;53.358;6.382;2024-03-08T08:26:29;101877.19;;;3.63;100.00
17855;BME280;9053;53.358;6.382;2024-03-08T08:29:05;101876.72;;;3.68;100.00
17855;BME280;9053;53.358;6.382;2024-03-08T08:31:35;101864.25;;;3.86;99.95
17855;BME280;9053;53.358;6.382;2024-03-08T08:34:08;101864.28;;;3.98;99.48
17855;BME280;9053;53.358;6.382;2024-03-08T08:36:39;101861.78;;;4.00;99.13
17855;BME280;9053;53.358;6.382;2024-03-08T08:39:09;101853.78;;;4.20;98.97
17855;BME280;9053;53.358;6.382;2024-03-08T08:41:43;101847.91;;;4.11;98.07
17855;BME280;9053;53.358;6.382;2024-03-08T08:44:14;101831.69;;;4.15;97.80
17855;BME280;9053;53.358;6.382;2024-03-08T08:46:45;101840.00;;;4.21;97.58
17855;BME280;9053;53.358;6.382;2024-03-08T08:49:18;101837.19;;;4.42;97.45
17855;BME280;9053;53.358;6.382;2024-03-08T08:51:50;101827.19;;;4.60;97.03
17855;BME280;9053;53.358;6.382;2024-03-08T08:54:24;101822.19;;;4.51;96.38
17855;BME280;9053;53.358;6.382;2024-03-08T08:56:57;101820.97;;;4.69;96.20
17855;BME280;9053;53.358;6.382;2024-03-08T08:59:34;101810.75;;;4.61;95.43
17855;BME280;9053;53.358;6.382;2024-03-08T09:02:06;101807.59;;;4.53;95.12
17855;BME280;9053;53.358;6.382;2024-03-08T09:04:43;101813.03;;;4.56;94.68
17855;BME280;9053;53.358;6.382;2024-03-08T09:07:14;101816.31;;;4.65;94.61
17855;BME280;9053;53.358;6.382;2024-03-08T09:09:46;101809.06;;;4.73;94.36
17855;BME280;9053;53.358;6.382;2024-03-08T09:12:26;101803.84;;;4.73;94.13
17855;BME280;9053;53.358;6.382;2024-03-08T09:14:56;101807.72;;;4.66;93.61
17855;BME280;9053;53.358;6.382;2024-03-08T09:17:26;101797.59;;;4.71;93.38
17855;BME280;9053;53.358;6.382;2024-03-08T09:19:57;101802.59;;;4.80;93.22
17855;BME280;9053;53.358;6.382;2024-03-08T09:22:27;101785.19;;;4.67;92.41
17855;BME280;9053;53.358;6.382;2024-03-08T09:24:57;101789.91;;;4.72;92.21
17855;BME280;9053;53.358;6.382;2024-03-08T09:27:30;101785.25;;;4.68;91.95
17855;BME280;9053;53.358;6.382;2024-03-08T09:30:06;101784.69;;;4.84;92.10
17855;BME280;9053;53.358;6.382;2024-03-08T09:32:40;101794.09;;;4.82;91.76
17855;BME280;9053;53.358;6.382;2024-03-08T09:35:11;101780.94;;;4.81;91.31
17855;BME280;9053;53.358;6.382;2024-03-08T09:37:42;101793.00;;;4.67;90.27
17855;BME280;9053;53.358;6.382;2024-03-08T09:40:15;101785.94;;;4.77;90.19
17855;BME280;9053;53.358;6.382;2024-03-08T09:42:49;101778.13;;;4.66;89.71
17855;BME280;9053;53.358;6.382;2024-03-08T09:45:20;101775.56;;;4.54;89.39
17855;BME280;9053;53.358;6.382;2024-03-08T09:47:52;101760.56;;;4.63;89.44
17855;BME280;9053;53.358;6.382;2024-03-08T09:50:22;101761.78;;;4.80;89.48
17855;BME280;9053;53.358;6.382;2024-03-08T09:53:01;101755.59;;;5.03;89.52
17855;BME280;9053;53.358;6.382;2024-03-08T09:55:33;101751.34;;;4.92;89.01
17855;BME280;9053;53.358;6.382;2024-03-08T09:58:07;101747.28;;;4.84;88.97
17855;BME280;9053;53.358;6.382;2024-03-08T10:01:04;101740.03;;;4.91;88.57
17855;BME280;9053;53.358;6.382;2024-03-08T10:03:35;101740.16;;;5.06;88.80
17855;BME280;9053;53.358;6.382;2024-03-08T10:06:06;101741.56;;;5.01;88.59
17855;BME280;9053;53.358;6.382;2024-03-08T10:08:37;101731.28;;;4.91;87.92
17855;BME280;9053;53.358;6.382;2024-03-08T10:11:10;101729.16;;;4.85;87.86
17855;BME280;9053;53.358;6.382;2024-03-08T10:13:44;101727.97;;;4.93;87.83
17855;BME280;9053;53.358;6.382;2024-03-08T10:16:14;101714.34;;;5.09;88.04
17855;BME280;9053;53.358;6.382;2024-03-08T10:18:46;101714.16;;;4.94;87.87
17855;BME280;9053;53.358;6.382;2024-03-08T10:21:16;101703.78;;;4.83;87.89
17855;BME280;9053;53.358;6.382;2024-03-08T10:23:46;101714.75;;;4.78;87.97
17855;BME280;9053;53.358;6.382;2024-03-08T10:26:16;101709.56;;;4.78;88.48
17855;BME280;9053;53.358;6.382;2024-03-08T10:28:51;101693.72;;;4.75;88.69
17855;BME280;9053;53.358;6.382;2024-03-08T10:31:22;101699.56;;;4.85;89.02
17855;BME280;9053;53.358;6.382;2024-03-08T10:33:54;101696.84;;;4.83;89.00
17855;BME280;9053;53.358;6.382;2024-03-08T10:36:24;101706.78;;;4.89;89.04
17855;BME280;9053;53.358;6.382;2024-03-08T10:38:56;101684.00;;;4.98;89.32
17855;BME280;9053;53.358;6.382;2024-03-08T10:41:32;101690.47;;;5.16;89.33
17855;BME280;9053;53.358;6.382;2024-03-08T10:44:11;101681.06;;;5.18;89.46
17855;BME280;9053;53.358;6.382;2024-03-08T10:47:02;101682.38;;;5.25;89.66
17855;BME280;9053;53.358;6.382;2024-03-08T10:49:38;101675.78;;;5.30;89.39
17855;BME280;9053;53.358;6.382;2024-03-08T10:52:09;101670.44;;;5.29;89.15
17855;BME280;9053;53.358;6.382;2024-03-08T10:54:45;101675.66;;;5.29;89.09
17855;BME280;9053;53.358;6.382;2024-03-08T10:57:18;101671.22;;;5.39;89.16
17855;BME280;9053;53.358;6.382;2024-03-08T10:59:54;101665.69;;;5.48;89.07
17855;BME280;9053;53.358;6.382;2024-03-08T11:02:25;101677.53;;;5.43;88.75
17855;BME280;9053;53.358;6.382;2024-03-08T11:04:57;101664.59;;;5.45;88.72
17855;BME280;9053;53.358;6.382;2024-03-08T11:07:28;101653.03;;;5.54;88.66
17855;BME280;9053;53.358;6.382;2024-03-08T11:09:59;101653.47;;;5.60;88.42
17855;BME280;9053;53.358;6.382;2024-03-08T11:12:36;101649.47;;;5.66;88.47
17855;BME280;9053;53.358;6.382;2024-03-08T11:15:13;101644.28;;;6.05;88.71
17855;BME280;9053;53.358;6.382;2024-03-08T11:17:47;101636.50;;;6.34;88.90
17855;BME280;9053;53.358;6.382;2024-03-08T11:20:19;101635.41;;;6.30;88.19
17855;BME280;9053;53.358;6.382;2024-03-08T11:22:49;101625.75;;;6.29;87.73
17855;BME280;9053;53.358;6.382;2024-03-08T11:25:34;101624.50;;;6.37;88.03
17855;BME280;9053;53.358;6.382;2024-03-08T11:28:16;101640.34;;;6.25;87.51
17855;BME280;9053;53.358;6.382;2024-03-08T11:34:01;101618.41;;;6.37;87.57
17855;BME280;9053;53.358;6.382;2024-03-08T11:36:34;101612.38;;;6.66;87.72
17855;BME280;9053;53.358;6.382;2024-03-08T11:39:07;101613.22;;;6.80;87.49
17855;BME280;9053;53.358;6.382;2024-03-08T11:41:43;101612.63;;;6.56;86.82
17855;BME280;9053;53.358;6.382;2024-03-08T11:44:13;101611.97;;;6.60;86.76
17855;BME280;9053;53.358;6.382;2024-03-08T11:46:46;101590.75;;;6.68;86.66
17855;BME280;9053;53.358;6.382;2024-03-08T11:49:16;101601.31;;;6.85;86.37
17855;BME280;9053;53.358;6.382;2024-03-08T11:51:51;101594.38;;;6.70;85.68
17855;BME280;9053;53.358;6.382;2024-03-08T11:54:23;101604.97;;;6.59;85.58
17855;BME280;9053;53.358;6.382;2024-03-08T11:56:53;101583.25;;;6.60;85.89
17855;BME280;9053;53.358;6.382;2024-03-08T11:59:28;101590.38;;;6.90;86.61
17855;BME280;9053;53.358;6.382;2024-03-08T12:02:06;101587.03;;;6.93;86.17
17855;BME280;9053;53.358;6.382;2024-03-08T12:04:38;101585.13;;;6.90;85.94
17855;BME280;9053;53.358;6.382;2024-03-08T12:07:09;101572.06;;;6.90;85.68
17855;BME280;9053;53.358;6.382;2024-03-08T12:09:41;101571.59;;;7.12;85.51
17855;BME280;9053;53.358;6.382;2024-03-08T12:12:15;101570.00;;;7.29;85.40
17855;BME280;9053;53.358;6.382;2024-03-08T12:14:45;101567.91;;;7.39;85.23
17855;BME280;9053;53.358;6.382;2024-03-08T12:17:18;101564.75;;;7.14;84.65
17855;BME280;9053;53.358;6.382;2024-03-08T12:19:48;101556.81;;;7.13;84.88
17855;BME280;9053;53.358;6.382;2024-03-08T12:22:25;101559.25;;;7.10;84.47
17855;BME280;9053;53.358;6.382;2024-03-08T12:25:03;101552.41;;;7.12;84.53
17855;BME280;9053;53.358;6.382;2024-03-08T12:27:37;101548.59;;;7.36;84.90
17855;BME280;9053;53.358;6.382;2024-03-08T12:30:21;101551.13;;;7.35;84.76
17855;BME280;9053;53.358;6.382;2024-03-08T12:32:59;101547.00;;;7.39;84.58
17855;BME280;9053;53.358;6.382;2024-03-08T12:35:30;101555.72;;;7.39;84.56
17855;BME280;9053;53.358;6.382;2024-03-08T12:38:00;101544.88;;;7.33;84.19
17855;BME280;9053;53.358;6.382;2024-03-08T12:40:32;101537.25;;;7.21;84.00
17855;BME280;9053;53.358;6.382;2024-03-08T12:43:07;101523.97;;;7.18;84.09
17855;BME280;9053;53.358;6.382;2024-03-08T12:45:39;101515.47;;;7.37;84.29
17855;BME280;9053;53.358;6.382;2024-03-08T12:48:14;101512.47;;;7.46;84.33
17855;BME280;9053;53.358;6.382;2024-03-08T12:50:46;101502.22;;;7.34;83.92
17855;BME280;9053;53.358;6.382;2024-03-08T12:53:18;101498.59;;;7.47;84.18
17855;BME280;9053;53.358;6.382;2024-03-08T12:55:50;101502.00;;;7.46;83.91
17855;BME280;9053;53.358;6.382;2024-03-08T12:58:23;101497.69;;;7.46;84.08
17855;BME280;9053;53.358;6.382;2024-03-08T13:00:54;101489.41;;;7.39;83.87
17855;BME280;9053;53.358;6.382;2024-03-08T13:03:27;101486.13;;;7.43;83.80
17855;BME280;9053;53.358;6.382;2024-03-08T13:05:58;101477.81;;;7.50;83.86
17855;BME280;9053;53.358;6.382;2024-03-08T13:08:28;101484.16;;;7.53;83.78
17855;BME280;9053;53.358;6.382;2024-03-08T13:11:03;101489.38;;;7.53;83.51
17855;BME280;9053;53.358;6.382;2024-03-08T13:13:34;101470.97;;;7.52;83.02
17855;BME280;9053;53.358;6.382;2024-03-08T13:16:08;101454.38;;;7.51;82.93
17855;BME280;9053;53.358;6.382;2024-03-08T13:18:44;101458.50;;;7.48;82.91
17855;BME280;9053;53.358;6.382;2024-03-08T13:21:20;101459.59;;;7.51;82.75
17855;BME280;9053;53.358;6.382;2024-03-08T13:23:51;101442.75;;;7.63;83.14
17855;BME280;9053;53.358;6.382;2024-03-08T13:26:22;101439.66;;;7.70;83.07
17855;BME280;9053;53.358;6.382;2024-03-08T13:28:52;101443.84;;;7.66;82.72
17855;BME280;9053;53.358;6.382;2024-03-08T13:31:27;101437.88;;;7.69;82.61
17855;BME280;9053;53.358;6.382;2024-03-08T13:34:01;101435.84;;;7.79;82.63